Warrenton, Texas
Current Conditions -  °F | °C
As of 1:55 PM on Sunday 23 Nov 2014 (Local Time) from K3T5 Reporting Station
Clear Clear  
Wind Chill: 80°   Ceiling: Unl
Heat Index: 80°   Visibility: 10mi
Dew Point: 50°   Wind: 12mph
Humidity: 35%   Direction: 240°WSW
Pressure: 29.53"   Gusts: 22mph
Location:  30.0108°N, 96.7162°W
Report Text: K3T5 231955Z AUTO 24010G19KT 10SM CLR 27/10 A2953 RMK AO2 T02660101
Loading
Personal Weather Stations






























Interactive Weather Map New forecast layout! Learn more

10-Day Weather Forecast

Advertisements
Track Severe Weather on mobile